sensor_id;sensor_type;location;lat;lon;timestamp;temperature;humidity
67817;DHT22;54614;47.576;7.524;2024-01-07T00:02:09;21.60;54.70
67817;DHT22;54614;47.576;7.524;2024-01-07T00:04:34;21.50;54.40
67817;DHT22;54614;47.576;7.524;2024-01-07T00:07:00;21.60;54.60
67817;DHT22;54614;47.576;7.524;2024-01-07T00:09:26;21.50;54.50
67817;DHT22;54614;47.576;7.524;2024-01-07T00:11:51;21.60;55.20
67817;DHT22;54614;47.576;7.524;2024-01-07T00:14:17;21.50;54.50
67817;DHT22;54614;47.576;7.524;2024-01-07T00:16:43;21.50;54.50
67817;DHT22;54614;47.576;7.524;2024-01-07T00:19:08;21.50;54.50
67817;DHT22;54614;47.576;7.524;2024-01-07T00:21:34;21.50;54.60
67817;DHT22;54614;47.576;7.524;2024-01-07T00:24:00;21.50;54.60
67817;DHT22;54614;47.576;7.524;2024-01-07T00:26:26;21.50;54.60
67817;DHT22;54614;47.576;7.524;2024-01-07T00:28:51;21.50;54.50
67817;DHT22;54614;47.576;7.524;2024-01-07T00:31:17;21.50;54.60
67817;DHT22;54614;47.576;7.524;2024-01-07T00:33:43;21.50;54.60
67817;DHT22;54614;47.576;7.524;2024-01-07T00:36:09;21.50;54.80
67817;DHT22;54614;47.576;7.524;2024-01-07T00:38:35;21.50;54.70
67817;DHT22;54614;47.576;7.524;2024-01-07T00:41:00;21.50;54.80
67817;DHT22;54614;47.576;7.524;2024-01-07T00:43:26;21.50;54.80
67817;DHT22;54614;47.576;7.524;2024-01-07T00:45:52;21.40;54.70
67817;DHT22;54614;47.576;7.524;2024-01-07T00:48:18;21.40;54.80
67817;DHT22;54614;47.576;7.524;2024-01-07T00:50:43;21.40;54.80
67817;DHT22;54614;47.576;7.524;2024-01-07T00:53:09;21.40;54.80
67817;DHT22;54614;47.576;7.524;2024-01-07T00:55:35;21.40;54.80
67817;DHT22;54614;47.576;7.524;2024-01-07T00:58:01;21.40;54.80
67817;DHT22;54614;47.576;7.524;2024-01-07T01:00:28;21.40;54.80
67817;DHT22;54614;47.576;7.524;2024-01-07T01:02:55;21.40;54.80
67817;DHT22;54614;47.576;7.524;2024-01-07T01:05:20;21.40;54.90
67817;DHT22;54614;47.576;7.524;2024-01-07T01:07:46;21.40;54.80
67817;DHT22;54614;47.576;7.524;2024-01-07T01:10:12;21.40;54.80
67817;DHT22;54614;47.576;7.524;2024-01-07T01:12:40;21.40;54.90
67817;DHT22;54614;47.576;7.524;2024-01-07T01:15:06;21.40;54.80
67817;DHT22;54614;47.576;7.524;2024-01-07T01:17:32;21.40;54.90
67817;DHT22;54614;47.576;7.524;2024-01-07T01:19:57;21.40;54.90
67817;DHT22;54614;47.576;7.524;2024-01-07T01:22:23;21.40;55.10
67817;DHT22;54614;47.576;7.524;2024-01-07T01:24:49;21.40;55.00
67817;DHT22;54614;47.576;7.524;2024-01-07T01:27:16;21.40;54.90
67817;DHT22;54614;47.576;7.524;2024-01-07T01:29:42;21.40;54.90
67817;DHT22;54614;47.576;7.524;2024-01-07T01:32:07;21.40;54.90
67817;DHT22;54614;47.576;7.524;2024-01-07T01:34:33;21.40;54.90
67817;DHT22;54614;47.576;7.524;2024-01-07T01:36:59;21.40;54.90
67817;DHT22;54614;47.576;7.524;2024-01-07T01:39:25;21.40;54.90
67817;DHT22;54614;47.576;7.524;2024-01-07T01:41:50;21.40;54.90
67817;DHT22;54614;47.576;7.524;2024-01-07T01:44:16;21.30;54.90
67817;DHT22;54614;47.576;7.524;2024-01-07T01:46:45;21.40;54.90
67817;DHT22;54614;47.576;7.524;2024-01-07T01:49:12;21.30;54.90
67817;DHT22;54614;47.576;7.524;2024-01-07T01:51:38;21.30;54.90
67817;DHT22;54614;47.576;7.524;2024-01-07T01:54:05;21.30;55.00
67817;DHT22;54614;47.576;7.524;2024-01-07T01:56:32;21.30;54.90
67817;DHT22;54614;47.576;7.524;2024-01-07T01:58:59;21.30;54.90
67817;DHT22;54614;47.576;7.524;2024-01-07T02:01:25;21.30;54.90
67817;DHT22;54614;47.576;7.524;2024-01-07T02:03:51;21.30;54.90
67817;DHT22;54614;47.576;7.524;2024-01-07T02:06:19;21.30;54.90
67817;DHT22;54614;47.576;7.524;2024-01-07T02:08:47;21.30;54.90
67817;DHT22;54614;47.576;7.524;2024-01-07T02:11:15;21.30;54.90
67817;DHT22;54614;47.576;7.524;2024-01-07T02:13:45;21.30;54.90
67817;DHT22;54614;47.576;7.524;2024-01-07T02:16:12;21.30;54.90
67817;DHT22;54614;47.576;7.524;2024-01-07T02:18:41;21.30;54.90
67817;DHT22;54614;47.576;7.524;2024-01-07T02:21:09;21.30;54.90
67817;DHT22;54614;47.576;7.524;2024-01-07T02:23:36;21.30;54.90
67817;DHT22;54614;47.576;7.524;2024-01-07T02:26:02;21.30;55.00
67817;DHT22;54614;47.576;7.524;2024-01-07T02:28:30;21.20;54.90
67817;DHT22;54614;47.576;7.524;2024-01-07T02:30:56;21.20;55.00
67817;DHT22;54614;47.576;7.524;2024-01-07T02:33:22;21.20;55.00
67817;DHT22;54614;47.576;7.524;2024-01-07T02:35:48;21.20;54.90
67817;DHT22;54614;47.576;7.524;2024-01-07T02:38:14;21.20;55.00
67817;DHT22;54614;47.576;7.524;2024-01-07T02:40:39;21.20;55.00
67817;DHT22;54614;47.576;7.524;2024-01-07T02:43:05;21.20;54.90
67817;DHT22;54614;47.576;7.524;2024-01-07T02:45:31;21.20;54.90
67817;DHT22;54614;47.576;7.524;2024-01-07T02:47:56;21.20;55.10
67817;DHT22;54614;47.576;7.524;2024-01-07T02:50:22;21.20;54.90
67817;DHT22;54614;47.576;7.524;2024-01-07T02:52:48;21.20;54.90
67817;DHT22;54614;47.576;7.524;2024-01-07T02:55:14;21.20;55.00
67817;DHT22;54614;47.576;7.524;2024-01-07T02:57:40;21.20;55.00
67817;DHT22;54614;47.576;7.524;2024-01-07T03:00:06;21.20;55.00
67817;DHT22;54614;47.576;7.524;2024-01-07T03:02:33;21.20;54.90
67817;DHT22;54614;47.576;7.524;2024-01-07T03:04:59;21.20;54.90
67817;DHT22;54614;47.576;7.524;2024-01-07T03:07:25;21.20;55.00
67817;DHT22;54614;47.576;7.524;2024-01-07T03:09:51;21.20;55.00
67817;DHT22;54614;47.576;7.524;2024-01-07T03:12:17;21.20;55.00
67817;DHT22;54614;47.576;7.524;2024-01-07T03:14:43;21.20;55.00
67817;DHT22;54614;47.576;7.524;2024-01-07T03:17:11;21.10;55.00
67817;DHT22;54614;47.576;7.524;2024-01-07T03:19:38;21.10;55.00
67817;DHT22;54614;47.576;7.524;2024-01-07T03:22:04;21.10;55.00
67817;DHT22;54614;47.576;7.524;2024-01-07T03:24:32;21.10;55.20
67817;DHT22;54614;47.576;7.524;2024-01-07T03:26:58;21.10;55.00
67817;DHT22;54614;47.576;7.524;2024-01-07T03:29:24;21.10;55.00
67817;DHT22;54614;47.576;7.524;2024-01-07T03:31:50;21.10;55.00
67817;DHT22;54614;47.576;7.524;2024-01-07T03:34:16;21.10;55.00
67817;DHT22;54614;47.576;7.524;2024-01-07T03:36:42;21.10;55.00
67817;DHT22;54614;47.576;7.524;2024-01-07T03:39:08;21.10;55.00
67817;DHT22;54614;47.576;7.524;2024-01-07T03:41:34;21.10;55.10
67817;DHT22;54614;47.576;7.524;2024-01-07T03:43:59;21.10;54.90
67817;DHT22;54614;47.576;7.524;2024-01-07T03:46:25;21.10;54.70
67817;DHT22;54614;47.576;7.524;2024-01-07T03:48:51;21.10;54.90
67817;DHT22;54614;47.576;7.524;2024-01-07T03:51:16;21.10;54.80
67817;DHT22;54614;47.576;7.524;2024-01-07T03:53:42;21.00;54.40
67817;DHT22;54614;47.576;7.524;2024-01-07T03:56:08;21.00;54.60
67817;DHT22;54614;47.576;7.524;2024-01-07T03:58:34;21.00;54.00
67817;DHT22;54614;47.576;7.524;2024-01-07T04:01:00;21.00;54.20
67817;DHT22;54614;47.576;7.524;2024-01-07T04:03:26;21.00;54.20
67817;DHT22;54614;47.576;7.524;2024-01-07T04:05:52;21.10;54.20
67817;DHT22;54614;47.576;7.524;2024-01-07T04:08:18;21.00;54.20
67817;DHT22;54614;47.576;7.524;2024-01-07T04:10:43;21.00;54.10
67817;DHT22;54614;47.576;7.524;2024-01-07T04:13:09;21.00;54.20
67817;DHT22;54614;47.576;7.524;2024-01-07T04:15:35;21.00;54.20
67817;DHT22;54614;47.576;7.524;2024-01-07T04:18:02;21.10;54.30
67817;DHT22;54614;47.576;7.524;2024-01-07T04:20:29;21.00;54.30
67817;DHT22;54614;47.576;7.524;2024-01-07T04:22:56;21.10;54.50
67817;DHT22;54614;47.576;7.524;2024-01-07T04:25:23;21.00;54.50
67817;DHT22;54614;47.576;7.524;2024-01-07T04:27:49;21.00;54.60
67817;DHT22;54614;47.576;7.524;2024-01-07T04:30:15;21.00;54.50
67817;DHT22;54614;47.576;7.524;2024-01-07T04:32:41;21.00;54.50
67817;DHT22;54614;47.576;7.524;2024-01-07T04:35:07;21.00;54.50
67817;DHT22;54614;47.576;7.524;2024-01-07T04:37:34;21.00;54.50
67817;DHT22;54614;47.576;7.524;2024-01-07T04:40:01;21.00;54.70
67817;DHT22;54614;47.576;7.524;2024-01-07T04:42:27;21.00;55.10
67817;DHT22;54614;47.576;7.524;2024-01-07T04:44:53;21.00;54.70
67817;DHT22;54614;47.576;7.524;2024-01-07T04:47:30;21.00;54.60
67817;DHT22;54614;47.576;7.524;2024-01-07T04:49:57;21.00;54.60
67817;DHT22;54614;47.576;7.524;2024-01-07T04:52:24;21.00;54.60
67817;DHT22;54614;47.576;7.524;2024-01-07T04:54:51;21.00;54.60
67817;DHT22;54614;47.576;7.524;2024-01-07T04:57:18;21.00;54.60
67817;DHT22;54614;47.576;7.524;2024-01-07T04:59:45;21.00;54.60
67817;DHT22;54614;47.576;7.524;2024-01-07T05:02:12;21.00;54.60
67817;DHT22;54614;47.576;7.524;2024-01-07T05:04:38;21.00;54.60
67817;DHT22;54614;47.576;7.524;2024-01-07T05:07:04;21.00;54.70
67817;DHT22;54614;47.576;7.524;2024-01-07T05:09:30;21.00;54.70
67817;DHT22;54614;47.576;7.524;2024-01-07T05:11:57;21.00;54.90
67817;DHT22;54614;47.576;7.524;2024-01-07T05:14:23;20.90;54.60
67817;DHT22;54614;47.576;7.524;2024-01-07T05:16:49;21.00;54.70
67817;DHT22;54614;47.576;7.524;2024-01-07T05:19:15;21.00;54.70
67817;DHT22;54614;47.576;7.524;2024-01-07T05:21:40;21.00;54.70
67817;DHT22;54614;47.576;7.524;2024-01-07T05:24:06;20.90;54.60
67817;DHT22;54614;47.576;7.524;2024-01-07T05:26:39;20.90;54.70
67817;DHT22;54614;47.576;7.524;2024-01-07T05:29:06;20.90;54.60
67817;DHT22;54614;47.576;7.524;2024-01-07T05:31:32;20.90;54.60
67817;DHT22;54614;47.576;7.524;2024-01-07T05:33:57;20.90;54.70
67817;DHT22;54614;47.576;7.524;2024-01-07T05:36:24;20.90;54.60
67817;DHT22;54614;47.576;7.524;2024-01-07T05:38:49;20.90;54.70
67817;DHT22;54614;47.576;7.524;2024-01-07T05:41:15;20.90;54.70
67817;DHT22;54614;47.576;7.524;2024-01-07T05:43:41;20.90;54.70
67817;DHT22;54614;47.576;7.524;2024-01-07T05:46:07;20.90;55.30
67817;DHT22;54614;47.576;7.524;2024-01-07T05:48:42;20.90;54.80
67817;DHT22;54614;47.576;7.524;2024-01-07T05:51:12;20.90;54.80
67817;DHT22;54614;47.576;7.524;2024-01-07T05:53:39;20.90;54.70
67817;DHT22;54614;47.576;7.524;2024-01-07T05:56:06;20.90;54.80
67817;DHT22;54614;47.576;7.524;2024-01-07T05:58:32;20.90;54.70
67817;DHT22;54614;47.576;7.524;2024-01-07T06:00:58;20.90;54.70
67817;DHT22;54614;47.576;7.524;2024-01-07T06:03:24;20.90;54.70
67817;DHT22;54614;47.576;7.524;2024-01-07T06:05:50;20.90;54.80
67817;DHT22;54614;47.576;7.524;2024-01-07T06:08:15;20.90;54.90
67817;DHT22;54614;47.576;7.524;2024-01-07T06:10:41;20.90;54.70
67817;DHT22;54614;47.576;7.524;2024-01-07T06:13:07;20.90;54.90
67817;DHT22;54614;47.576;7.524;2024-01-07T06:15:33;20.80;54.70
67817;DHT22;54614;47.576;7.524;2024-01-07T06:17:59;20.80;54.70
67817;DHT22;54614;47.576;7.524;2024-01-07T06:20:24;20.80;54.80
67817;DHT22;54614;47.576;7.524;2024-01-07T06:22:50;20.80;54.70
67817;DHT22;54614;47.576;7.524;2024-01-07T06:25:16;20.90;54.70
67817;DHT22;54614;47.576;7.524;2024-01-07T06:27:42;20.80;54.70
67817;DHT22;54614;47.576;7.524;2024-01-07T06:30:08;20.80;55.30
67817;DHT22;54614;47.576;7.524;2024-01-07T06:32:35;20.80;54.80
67817;DHT22;54614;47.576;7.524;2024-01-07T06:35:01;20.80;54.70
67817;DHT22;54614;47.576;7.524;2024-01-07T06:37:28;20.80;54.80
67817;DHT22;54614;47.576;7.524;2024-01-07T06:39:56;20.80;54.80
67817;DHT22;54614;47.576;7.524;2024-01-07T06:42:22;20.80;54.90
67817;DHT22;54614;47.576;7.524;2024-01-07T06:44:48;20.80;54.70
67817;DHT22;54614;47.576;7.524;2024-01-07T06:47:13;20.80;54.70
67817;DHT22;54614;47.576;7.524;2024-01-07T06:49:40;20.80;54.70
67817;DHT22;54614;47.576;7.524;2024-01-07T06:52:05;20.80;54.70
67817;DHT22;54614;47.576;7.524;2024-01-07T06:54:31;20.80;54.90
67817;DHT22;54614;47.576;7.524;2024-01-07T06:56:57;20.80;54.70
67817;DHT22;54614;47.576;7.524;2024-01-07T06:59:23;20.80;54.70
67817;DHT22;54614;47.576;7.524;2024-01-07T07:01:48;20.80;54.90
67817;DHT22;54614;47.576;7.524;2024-01-07T07:04:14;20.80;54.80
67817;DHT22;54614;47.576;7.524;2024-01-07T07:06:40;20.80;54.80
67817;DHT22;54614;47.576;7.524;2024-01-07T07:09:05;20.80;55.00
67817;DHT22;54614;47.576;7.524;2024-01-07T07:11:32;20.80;54.80
67817;DHT22;54614;47.576;7.524;2024-01-07T07:13:58;20.80;54.70
67817;DHT22;54614;47.576;7.524;2024-01-07T07:16:23;20.80;54.70
67817;DHT22;54614;47.576;7.524;2024-01-07T07:18:50;20.80;54.70
67817;DHT22;54614;47.576;7.524;2024-01-07T07:21:16;20.70;54.80
67817;DHT22;54614;47.576;7.524;2024-01-07T07:23:41;20.70;54.70
67817;DHT22;54614;47.576;7.524;2024-01-07T07:26:07;20.70;54.80
67817;DHT22;54614;47.576;7.524;2024-01-07T07:28:33;20.70;54.90
67817;DHT22;54614;47.576;7.524;2024-01-07T07:30:59;20.80;54.90
67817;DHT22;54614;47.576;7.524;2024-01-07T07:33:25;20.70;54.70
67817;DHT22;54614;47.576;7.524;2024-01-07T07:35:51;20.70;54.90
67817;DHT22;54614;47.576;7.524;2024-01-07T07:38:17;20.70;54.70
67817;DHT22;54614;47.576;7.524;2024-01-07T07:40:42;20.70;54.80
67817;DHT22;54614;47.576;7.524;2024-01-07T07:43:10;20.70;55.40
67817;DHT22;54614;47.576;7.524;2024-01-07T07:45:35;20.70;54.50
67817;DHT22;54614;47.576;7.524;2024-01-07T07:48:01;20.70;54.50
67817;DHT22;54614;47.576;7.524;2024-01-07T07:50:27;20.70;54.50
67817;DHT22;54614;47.576;7.524;2024-01-07T07:52:53;20.70;54.50
67817;DHT22;54614;47.576;7.524;2024-01-07T07:55:19;20.80;54.70
67817;DHT22;54614;47.576;7.524;2024-01-07T07:57:45;20.80;54.60
67817;DHT22;54614;47.576;7.524;2024-01-07T08:00:12;20.80;54.50
67817;DHT22;54614;47.576;7.524;2024-01-07T08:02:38;20.80;54.70
67817;DHT22;54614;47.576;7.524;2024-01-07T08:05:06;20.80;54.80
67817;DHT22;54614;47.576;7.524;2024-01-07T08:07:32;20.90;55.20
67817;DHT22;54614;47.576;7.524;2024-01-07T08:09:58;20.90;55.20
67817;DHT22;54614;47.576;7.524;2024-01-07T08:12:24;21.00;55.20
67817;DHT22;54614;47.576;7.524;2024-01-07T08:14:49;20.90;55.30
67817;DHT22;54614;47.576;7.524;2024-01-07T08:17:15;21.00;55.50
67817;DHT22;54614;47.576;7.524;2024-01-07T08:19:42;21.00;55.30
67817;DHT22;54614;47.576;7.524;2024-01-07T08:22:08;21.00;55.40
67817;DHT22;54614;47.576;7.524;2024-01-07T08:24:34;21.00;55.60
67817;DHT22;54614;47.576;7.524;2024-01-07T08:27:01;21.00;55.60
67817;DHT22;54614;47.576;7.524;2024-01-07T08:29:28;21.00;56.00
67817;DHT22;54614;47.576;7.524;2024-01-07T08:31:54;21.00;55.90
67817;DHT22;54614;47.576;7.524;2024-01-07T08:34:20;21.10;56.00
67817;DHT22;54614;47.576;7.524;2024-01-07T08:36:46;21.10;56.00
67817;DHT22;54614;47.576;7.524;2024-01-07T08:39:14;21.10;56.00
67817;DHT22;54614;47.576;7.524;2024-01-07T08:41:40;21.10;56.00
67817;DHT22;54614;47.576;7.524;2024-01-07T08:44:06;21.10;55.90
67817;DHT22;54614;47.576;7.524;2024-01-07T08:46:34;21.10;55.90
67817;DHT22;54614;47.576;7.524;2024-01-07T08:49:00;21.10;56.10
67817;DHT22;54614;47.576;7.524;2024-01-07T08:51:25;21.20;56.10
67817;DHT22;54614;47.576;7.524;2024-01-07T08:53:51;21.20;56.00
67817;DHT22;54614;47.576;7.524;2024-01-07T08:56:17;21.30;55.80
67817;DHT22;54614;47.576;7.524;2024-01-07T08:58:43;21.30;55.90
67817;DHT22;54614;47.576;7.524;2024-01-07T09:01:09;21.30;55.90
67817;DHT22;54614;47.576;7.524;2024-01-07T09:03:35;21.30;55.80
67817;DHT22;54614;47.576;7.524;2024-01-07T09:06:00;21.30;55.80
67817;DHT22;54614;47.576;7.524;2024-01-07T09:08:26;21.40;55.80
67817;DHT22;54614;47.576;7.524;2024-01-07T09:10:52;21.40;55.70
67817;DHT22;54614;47.576;7.524;2024-01-07T09:13:18;21.40;55.70
67817;DHT22;54614;47.576;7.524;2024-01-07T09:15:43;21.40;55.70
67817;DHT22;54614;47.576;7.524;2024-01-07T09:18:09;21.40;55.70
67817;DHT22;54614;47.576;7.524;2024-01-07T09:20:35;21.40;55.80
67817;DHT22;54614;47.576;7.524;2024-01-07T09:23:00;21.40;55.70
67817;DHT22;54614;47.576;7.524;2024-01-07T09:25:26;21.40;55.70
67817;DHT22;54614;47.576;7.524;2024-01-07T09:27:52;21.40;55.70
67817;DHT22;54614;47.576;7.524;2024-01-07T09:30:18;21.40;56.30
67817;DHT22;54614;47.576;7.524;2024-01-07T09:32:44;21.40;55.80
67817;DHT22;54614;47.576;7.524;2024-01-07T09:35:10;21.50;55.70
67817;DHT22;54614;47.576;7.524;2024-01-07T09:37:36;21.50;55.70
67817;DHT22;54614;47.576;7.524;2024-01-07T09:40:02;21.40;55.70
67817;DHT22;54614;47.576;7.524;2024-01-07T09:42:30;21.40;55.60
67817;DHT22;54614;47.576;7.524;2024-01-07T09:44:56;21.30;55.70
67817;DHT22;54614;47.576;7.524;2024-01-07T09:47:23;21.30;55.80
67817;DHT22;54614;47.576;7.524;2024-01-07T09:49:49;21.30;56.00
67817;DHT22;54614;47.576;7.524;2024-01-07T09:52:15;21.30;55.90
67817;DHT22;54614;47.576;7.524;2024-01-07T09:54:42;21.20;55.80
67817;DHT22;54614;47.576;7.524;2024-01-07T09:57:15;21.20;55.90
67817;DHT22;54614;47.576;7.524;2024-01-07T09:59:41;21.20;56.00
67817;DHT22;54614;47.576;7.524;2024-01-07T10:02:07;21.20;56.10
67817;DHT22;54614;47.576;7.524;2024-01-07T10:04:33;21.40;59.60
67817;DHT22;54614;47.576;7.524;2024-01-07T10:06:59;21.40;59.00
67817;DHT22;54614;47.576;7.524;2024-01-07T10:09:28;21.40;57.60
67817;DHT22;54614;47.576;7.524;2024-01-07T10:11:55;21.40;57.70
67817;DHT22;54614;47.576;7.524;2024-01-07T10:14:21;21.40;57.70
67817;DHT22;54614;47.576;7.524;2024-01-07T10:16:48;21.40;58.30
67817;DHT22;54614;47.576;7.524;2024-01-07T10:19:21;21.40;57.30
67817;DHT22;54614;47.576;7.524;2024-01-07T10:22:07;21.50;57.50
67817;DHT22;54614;47.576;7.524;2024-01-07T10:24:37;21.50;56.90
67817;DHT22;54614;47.576;7.524;2024-01-07T10:27:05;21.60;58.90
67817;DHT22;54614;47.576;7.524;2024-01-07T10:29:33;21.60;58.60
67817;DHT22;54614;47.576;7.524;2024-01-07T10:32:00;21.70;58.40
67817;DHT22;54614;47.576;7.524;2024-01-07T10:34:31;21.70;57.80
67817;DHT22;54614;47.576;7.524;2024-01-07T10:37:03;21.80;57.40
67817;DHT22;54614;47.576;7.524;2024-01-07T10:39:30;21.80;57.20
67817;DHT22;54614;47.576;7.524;2024-01-07T10:41:57;21.80;56.80
67817;DHT22;54614;47.576;7.524;2024-01-07T10:44:29;21.90;58.70
67817;DHT22;54614;47.576;7.524;2024-01-07T10:46:56;21.90;58.10
67817;DHT22;54614;47.576;7.524;2024-01-07T10:49:24;21.90;58.00
67817;DHT22;54614;47.576;7.524;2024-01-07T10:52:17;22.00;62.00
67817;DHT22;54614;47.576;7.524;2024-01-07T10:54:44;22.10;61.10
67817;DHT22;54614;47.576;7.524;2024-01-07T10:57:16;22.10;61.70
67817;DHT22;54614;47.576;7.524;2024-01-07T10:59:50;22.10;63.00
67817;DHT22;54614;47.576;7.524;2024-01-07T11:02:20;22.20;64.50
67817;DHT22;54614;47.576;7.524;2024-01-07T11:05:05;22.20;63.50
67817;DHT22;54614;47.576;7.524;2024-01-07T11:07:45;22.30;62.10
67817;DHT22;54614;47.576;7.524;2024-01-07T11:10:22;22.30;61.30
67817;DHT22;54614;47.576;7.524;2024-01-07T11:12:55;22.40;61.50
67817;DHT22;54614;47.576;7.524;2024-01-07T11:18:22;22.40;59.90
67817;DHT22;54614;47.576;7.524;2024-01-07T11:20:49;22.40;58.90
67817;DHT22;54614;47.576;7.524;2024-01-07T11:23:27;22.40;59.40
67817;DHT22;54614;47.576;7.524;2024-01-07T11:25:57;22.40;58.90
67817;DHT22;54614;47.576;7.524;2024-01-07T11:29:01;22.40;58.50
67817;DHT22;54614;47.576;7.524;2024-01-07T11:34:05;22.50;62.80
67817;DHT22;54614;47.576;7.524;2024-01-07T11:36:34;22.50;60.40
67817;DHT22;54614;47.576;7.524;2024-01-07T11:39:01;22.50;60.70
67817;DHT22;54614;47.576;7.524;2024-01-07T11:41:31;22.50;59.90
67817;DHT22;54614;47.576;7.524;2024-01-07T11:43:59;22.50;58.00
67817;DHT22;54614;47.576;7.524;2024-01-07T11:46:27;22.50;57.30
67817;DHT22;54614;47.576;7.524;2024-01-07T11:48:55;22.50;56.90
67817;DHT22;54614;47.576;7.524;2024-01-07T11:51:32;22.40;56.50
67817;DHT22;54614;47.576;7.524;2024-01-07T11:53:58;22.40;56.30
67817;DHT22;54614;47.576;7.524;2024-01-07T11:56:25;22.40;56.20
67817;DHT22;54614;47.576;7.524;2024-01-07T11:58:51;22.40;56.10
67817;DHT22;54614;47.576;7.524;2024-01-07T12:01:20;22.40;56.70
67817;DHT22;54614;47.576;7.524;2024-01-07T12:03:46;22.40;56.00
67817;DHT22;54614;47.576;7.524;2024-01-07T12:06:13;22.30;55.80
67817;DHT22;54614;47.576;7.524;2024-01-07T12:08:43;22.30;55.80
67817;DHT22;54614;47.576;7.524;2024-01-07T12:11:11;22.30;55.70
67817;DHT22;54614;47.576;7.524;2024-01-07T12:13:38;22.30;55.70
67817;DHT22;54614;47.576;7.524;2024-01-07T12:16:05;22.30;56.80
67817;DHT22;54614;47.576;7.524;2024-01-07T12:18:32;22.30;59.20
67817;DHT22;54614;47.576;7.524;2024-01-07T12:20:59;22.40;59.20
67817;DHT22;54614;47.576;7.524;2024-01-07T12:23:26;22.40;62.70
67817;DHT22;54614;47.576;7.524;2024-01-07T12:25:53;22.50;61.10
67817;DHT22;54614;47.576;7.524;2024-01-07T12:28:19;22.60;62.20
67817;DHT22;54614;47.576;7.524;2024-01-07T12:30:47;22.60;59.30
67817;DHT22;54614;47.576;7.524;2024-01-07T12:33:19;22.60;59.30
67817;DHT22;54614;47.576;7.524;2024-01-07T12:35:46;22.60;61.10
67817;DHT22;54614;47.576;7.524;2024-01-07T12:38:13;22.70;60.00
67817;DHT22;54614;47.576;7.524;2024-01-07T12:40:39;22.70;59.90
67817;DHT22;54614;47.576;7.524;2024-01-07T12:43:05;22.80;61.30
67817;DHT22;54614;47.576;7.524;2024-01-07T12:45:34;22.80;60.70
67817;DHT22;54614;47.576;7.524;2024-01-07T12:48:00;22.90;60.50
67817;DHT22;54614;47.576;7.524;2024-01-07T12:50:28;22.90;58.40
67817;DHT22;54614;47.576;7.524;2024-01-07T12:52:56;22.90;60.00
67817;DHT22;54614;47.576;7.524;2024-01-07T12:55:22;23.00;62.00
67817;DHT22;54614;47.576;7.524;2024-01-07T12:57:48;23.00;59.70
67817;DHT22;54614;47.576;7.524;2024-01-07T13:00:15;23.00;58.30
67817;DHT22;54614;47.576;7.524;2024-01-07T13:02:41;23.00;58.00
67817;DHT22;54614;47.576;7.524;2024-01-07T13:05:08;23.10;59.00
67817;DHT22;54614;47.576;7.524;2024-01-07T13:07:34;23.10;58.10
67817;DHT22;54614;47.576;7.524;2024-01-07T13:10:01;23.00;59.60
67817;DHT22;54614;47.576;7.524;2024-01-07T13:12:26;23.10;60.70
67817;DHT22;54614;47.576;7.524;2024-01-07T13:14:52;23.10;58.80
67817;DHT22;54614;47.576;7.524;2024-01-07T13:17:18;23.10;57.20
67817;DHT22;54614;47.576;7.524;2024-01-07T13:19:45;23.10;56.90
67817;DHT22;54614;47.576;7.524;2024-01-07T13:22:10;23.00;55.90
67817;DHT22;54614;47.576;7.524;2024-01-07T13:24:36;23.00;55.50
67817;DHT22;54614;47.576;7.524;2024-01-07T13:27:03;23.00;55.30
67817;DHT22;54614;47.576;7.524;2024-01-07T13:29:29;23.00;55.10
67817;DHT22;54614;47.576;7.524;2024-01-07T13:31:55;23.00;55.10
67817;DHT22;54614;47.576;7.524;2024-01-07T13:34:20;22.90;54.90
67817;DHT22;54614;47.576;7.524;2024-01-07T13:36:46;23.00;54.90
67817;DHT22;54614;47.576;7.524;2024-01-07T13:39:12;22.90;54.70
67817;DHT22;54614;47.576;7.524;2024-01-07T13:41:42;22.90;54.50
67817;DHT22;54614;47.576;7.524;2024-01-07T13:44:09;22.90;54.40
67817;DHT22;54614;47.576;7.524;2024-01-07T13:46:44;22.90;54.20
67817;DHT22;54614;47.576;7.524;2024-01-07T13:49:12;22.90;54.20
67817;DHT22;54614;47.576;7.524;2024-01-07T13:51:38;22.90;54.20
67817;DHT22;54614;47.576;7.524;2024-01-07T13:54:04;22.90;54.20
67817;DHT22;54614;47.576;7.524;2024-01-07T13:56:31;22.90;54.10
67817;DHT22;54614;47.576;7.524;2024-01-07T13:58:57;22.90;54.00
67817;DHT22;54614;47.576;7.524;2024-01-07T14:01:22;22.90;53.90
67817;DHT22;54614;47.576;7.524;2024-01-07T14:14:56;22.70;53.20
67817;DHT22;54614;47.576;7.524;2024-01-07T14:17:23;22.80;54.10
67817;DHT22;54614;47.576;7.524;2024-01-07T14:19:48;22.80;54.00
67817;DHT22;54614;47.576;7.524;2024-01-07T14:22:16;22.70;53.40
67817;DHT22;54614;47.576;7.524;2024-01-07T14:24:41;22.90;53.90
67817;DHT22;54614;47.576;7.524;2024-01-07T14:27:07;22.70;53.70
67817;DHT22;54614;47.576;7.524;2024-01-07T14:29:33;22.70;53.70
67817;DHT22;54614;47.576;7.524;2024-01-07T14:31:58;22.60;53.90
67817;DHT22;54614;47.576;7.524;2024-01-07T14:34:24;22.60;54.00
67817;DHT22;54614;47.576;7.524;2024-01-07T14:36:50;22.60;53.90
67817;DHT22;54614;47.576;7.524;2024-01-07T14:39:16;22.60;54.00
67817;DHT22;54614;47.576;7.524;2024-01-07T14:41:41;22.60;54.20
67817;DHT22;54614;47.576;7.524;2024-01-07T14:44:08;22.60;54.10
67817;DHT22;54614;47.576;7.524;2024-01-07T14:46:34;22.50;54.10
67817;DHT22;54614;47.576;7.524;2024-01-07T14:49:00;22.60;54.50
67817;DHT22;54614;47.576;7.524;2024-01-07T14:51:25;22.60;54.50
67817;DHT22;54614;47.576;7.524;2024-01-07T14:53:51;22.50;54.80
67817;DHT22;54614;47.576;7.524;2024-01-07T14:56:17;22.60;55.10
67817;DHT22;54614;47.576;7.524;2024-01-07T14:58:42;22.60;54.60
67817;DHT22;54614;47.576;7.524;2024-01-07T15:01:09;22.60;54.50
67817;DHT22;54614;47.576;7.524;2024-01-07T15:03:35;22.50;54.40
67817;DHT22;54614;47.576;7.524;2024-01-07T15:06:00;22.50;54.50
67817;DHT22;54614;47.576;7.524;2024-01-07T15:08:26;22.60;54.70
67817;DHT22;54614;47.576;7.524;2024-01-07T15:10:52;22.50;54.50
67817;DHT22;54614;47.576;7.524;2024-01-07T15:13:18;22.50;54.50
67817;DHT22;54614;47.576;7.524;2024-01-07T15:15:43;22.50;54.40
67817;DHT22;54614;47.576;7.524;2024-01-07T15:18:09;22.50;54.70
67817;DHT22;54614;47.576;7.524;2024-01-07T15:20:35;22.60;54.60
67817;DHT22;54614;47.576;7.524;2024-01-07T15:23:01;22.60;54.50
67817;DHT22;54614;47.576;7.524;2024-01-07T15:25:28;22.60;54.30
67817;DHT22;54614;47.576;7.524;2024-01-07T15:27:54;22.60;54.40
67817;DHT22;54614;47.576;7.524;2024-01-07T15:30:19;22.60;54.20
67817;DHT22;54614;47.576;7.524;2024-01-07T15:32:45;22.50;54.20
67817;DHT22;54614;47.576;7.524;2024-01-07T15:35:11;22.50;54.20
67817;DHT22;54614;47.576;7.524;2024-01-07T15:37:37;22.60;54.20
67817;DHT22;54614;47.576;7.524;2024-01-07T15:40:03;22.60;54.20
67817;DHT22;54614;47.576;7.524;2024-01-07T15:42:29;22.60;54.40
67817;DHT22;54614;47.576;7.524;2024-01-07T15:44:54;22.60;54.30